sensor_id;sensor_type;location;lat;lon;timestamp;temperature;humidity
7942;HTU21D;4016;50.758;7.150;2024-01-15T09:12:33;2.42;118.99
7942;HTU21D;4016;50.758;7.150;2024-01-15T09:17:34;2.40;118.99
7942;HTU21D;4016;50.758;7.150;2024-01-15T09:22:34;2.62;118.99
7942;HTU21D;4016;50.758;7.150;2024-01-15T09:27:35;2.55;118.99
7942;HTU21D;4016;50.758;7.150;2024-01-15T09:32:36;2.67;118.99
7942;HTU21D;4016;50.758;7.150;2024-01-15T09:37:36;2.66;118.99
7942;HTU21D;4016;50.758;7.150;2024-01-15T09:42:38;2.70;118.99
7942;HTU21D;4016;50.758;7.150;2024-01-15T09:47:38;2.70;118.99
7942;HTU21D;4016;50.758;7.150;2024-01-15T09:52:39;2.58;118.99
7942;HTU21D;4016;50.758;7.150;2024-01-15T09:57:40;2.46;118.99
7942;HTU21D;4016;50.758;7.150;2024-01-15T10:02:41;2.22;118.99
7942;HTU21D;4016;50.758;7.150;2024-01-15T10:07:42;2.17;118.99
7942;HTU21D;4016;50.758;7.150;2024-01-15T10:12:42;2.10;118.99
7942;HTU21D;4016;50.758;7.150;2024-01-15T10:17:43;1.87;118.99
7942;HTU21D;4016;50.758;7.150;2024-01-15T10:22:45;1.83;118.99
7942;HTU21D;4016;50.758;7.150;2024-01-15T10:27:59;1.66;118.99
7942;HTU21D;4016;50.758;7.150;2024-01-15T10:33:01;1.82;118.99
7942;HTU21D;4016;50.758;7.150;2024-01-15T10:38:03;1.70;118.99
7942;HTU21D;4016;50.758;7.150;2024-01-15T10:43:03;1.69;118.99
7942;HTU21D;4016;50.758;7.150;2024-01-15T10:48:05;1.79;118.99
7942;HTU21D;4016;50.758;7.150;2024-01-15T10:53:05;1.66;118.99
7942;HTU21D;4016;50.758;7.150;2024-01-15T10:58:06;1.52;118.99
7942;HTU21D;4016;50.758;7.150;2024-01-15T11:03:07;1.53;118.99
7942;HTU21D;4016;50.758;7.150;2024-01-15T11:08:08;1.72;118.99
7942;HTU21D;4016;50.758;7.150;2024-01-15T11:13:19;1.65;118.99
7942;HTU21D;4016;50.758;7.150;2024-01-15T11:18:20;1.55;118.99
7942;HTU21D;4016;50.758;7.150;2024-01-15T11:23:44;1.57;118.99
7942;HTU21D;4016;50.758;7.150;2024-01-15T11:28:49;1.53;118.99
7942;HTU21D;4016;50.758;7.150;2024-01-15T11:33:50;1.49;118.99
7942;HTU21D;4016;50.758;7.150;2024-01-15T11:38:50;1.63;118.99
7942;HTU21D;4016;50.758;7.150;2024-01-15T11:43:51;1.62;118.99
7942;HTU21D;4016;50.758;7.150;2024-01-15T11:48:58;1.70;118.99
7942;HTU21D;4016;50.758;7.150;2024-01-15T11:54:05;1.68;118.99
7942;HTU21D;4016;50.758;7.150;2024-01-15T11:59:09;1.79;118.99
7942;HTU21D;4016;50.758;7.150;2024-01-15T12:04:09;1.94;118.99
7942;HTU21D;4016;50.758;7.150;2024-01-15T12:09:10;1.98;118.99
7942;HTU21D;4016;50.758;7.150;2024-01-15T12:14:10;2.08;118.99
7942;HTU21D;4016;50.758;7.150;2024-01-15T12:19:10;2.00;118.99
7942;HTU21D;4016;50.758;7.150;2024-01-15T12:24:11;2.03;118.99
7942;HTU21D;4016;50.758;7.150;2024-01-15T12:29:11;2.10;118.99
7942;HTU21D;4016;50.758;7.150;2024-01-15T12:34:12;2.13;118.99
7942;HTU21D;4016;50.758;7.150;2024-01-15T12:39:12;2.31;118.99
7942;HTU21D;4016;50.758;7.150;2024-01-15T12:44:13;2.49;118.99
7942;HTU21D;4016;50.758;7.150;2024-01-15T12:49:13;2.72;118.99
7942;HTU21D;4016;50.758;7.150;2024-01-15T12:54:14;3.06;118.99
7942;HTU21D;4016;50.758;7.150;2024-01-15T12:59:14;2.74;118.99
7942;HTU21D;4016;50.758;7.150;2024-01-15T13:04:22;2.68;118.99
7942;HTU21D;4016;50.758;7.150;2024-01-15T13:09:23;2.68;118.99
7942;HTU21D;4016;50.758;7.150;2024-01-15T13:14:23;2.66;118.99
7942;HTU21D;4016;50.758;7.150;2024-01-15T13:19:23;2.75;118.99
7942;HTU21D;4016;50.758;7.150;2024-01-15T13:24:24;2.91;118.99
7942;HTU21D;4016;50.758;7.150;2024-01-15T13:29:24;3.12;118.99
7942;HTU21D;4016;50.758;7.150;2024-01-15T13:34:24;3.12;118.99
7942;HTU21D;4016;50.758;7.150;2024-01-15T13:39:25;3.00;118.99
7942;HTU21D;4016;50.758;7.150;2024-01-15T13:44:25;2.91;118.99
7942;HTU21D;4016;50.758;7.150;2024-01-15T13:49:25;2.73;118.99
7942;HTU21D;4016;50.758;7.150;2024-01-15T13:54:26;2.88;118.99
7942;HTU21D;4016;50.758;7.150;2024-01-15T13:59:26;2.65;118.99
7942;HTU21D;4016;50.758;7.150;2024-01-15T14:04:27;2.58;118.99
7942;HTU21D;4016;50.758;7.150;2024-01-15T14:09:27;2.65;118.99
7942;HTU21D;4016;50.758;7.150;2024-01-15T14:14:28;2.52;118.99
7942;HTU21D;4016;50.758;7.150;2024-01-15T14:19:28;2.50;118.99
7942;HTU21D;4016;50.758;7.150;2024-01-15T14:24:28;2.60;118.99
7942;HTU21D;4016;50.758;7.150;2024-01-15T14:29:29;2.50;118.99
7942;HTU21D;4016;50.758;7.150;2024-01-15T14:34:30;2.59;118.99
7942;HTU21D;4016;50.758;7.150;2024-01-15T14:39:30;2.46;118.99
7942;HTU21D;4016;50.758;7.150;2024-01-15T14:44:34;2.38;118.99
7942;HTU21D;4016;50.758;7.150;2024-01-15T14:49:35;2.32;118.99
7942;HTU21D;4016;50.758;7.150;2024-01-15T14:54:35;2.25;118.99
7942;HTU21D;4016;50.758;7.150;2024-01-15T14:59:36;2.08;118.99
7942;HTU21D;4016;50.758;7.150;2024-01-15T15:04:36;1.95;118.99
7942;HTU21D;4016;50.758;7.150;2024-01-15T15:09:36;1.84;118.99
7942;HTU21D;4016;50.758;7.150;2024-01-15T15:14:40;1.72;118.99
7942;HTU21D;4016;50.758;7.150;2024-01-15T15:19:40;1.96;118.99
7942;HTU21D;4016;50.758;7.150;2024-01-15T15:24:40;1.82;118.99
7942;HTU21D;4016;50.758;7.150;2024-01-15T15:29:41;1.63;118.99
7942;HTU21D;4016;50.758;7.150;2024-01-15T15:34:41;1.70;118.99
7942;HTU21D;4016;50.758;7.150;2024-01-15T15:39:42;1.68;118.99
7942;HTU21D;4016;50.758;7.150;2024-01-15T15:44:43;1.72;118.99
7942;HTU21D;4016;50.758;7.150;2024-01-15T15:49:46;1.66;118.99
7942;HTU21D;4016;50.758;7.150;2024-01-15T15:54:47;1.75;118.99
7942;HTU21D;4016;50.758;7.150;2024-01-15T15:59:47;1.66;118.99
7942;HTU21D;4016;50.758;7.150;2024-01-15T16:04:47;1.58;118.99
7942;HTU21D;4016;50.758;7.150;2024-01-15T16:09:48;1.63;118.99
7942;HTU21D;4016;50.758;7.150;2024-01-15T16:14:48;1.65;118.99
7942;HTU21D;4016;50.758;7.150;2024-01-15T16:19:49;1.82;118.99
7942;HTU21D;4016;50.758;7.150;2024-01-15T16:24:49;1.64;118.99
7942;HTU21D;4016;50.758;7.150;2024-01-15T16:29:49;1.69;118.99
7942;HTU21D;4016;50.758;7.150;2024-01-15T16:34:50;1.58;118.99
7942;HTU21D;4016;50.758;7.150;2024-01-15T16:39:50;1.57;118.99
7942;HTU21D;4016;50.758;7.150;2024-01-15T16:44:51;1.62;118.99
7942;HTU21D;4016;50.758;7.150;2024-01-15T16:49:51;1.58;118.99
7942;HTU21D;4016;50.758;7.150;2024-01-15T16:54:52;1.58;118.99
7942;HTU21D;4016;50.758;7.150;2024-01-15T16:59:52;1.65;118.99
7942;HTU21D;4016;50.758;7.150;2024-01-15T17:04:52;1.57;118.99
7942;HTU21D;4016;50.758;7.150;2024-01-15T17:09:53;1.43;118.99
7942;HTU21D;4016;50.758;7.150;2024-01-15T17:14:53;1.49;118.99
7942;HTU21D;4016;50.758;7.150;2024-01-15T17:19:54;1.53;118.99
7942;HTU21D;4016;50.758;7.150;2024-01-15T17:24:55;1.51;118.99
7942;HTU21D;4016;50.758;7.150;2024-01-15T17:29:55;1.41;118.99
7942;HTU21D;4016;50.758;7.150;2024-01-15T17:34:56;1.47;118.99
7942;HTU21D;4016;50.758;7.150;2024-01-15T17:39:56;1.53;118.99
7942;HTU21D;4016;50.758;7.150;2024-01-15T17:44:57;1.37;118.99
7942;HTU21D;4016;50.758;7.150;2024-01-15T17:49:57;1.45;118.99
7942;HTU21D;4016;50.758;7.150;2024-01-15T17:54:57;1.39;118.99
7942;HTU21D;4016;50.758;7.150;2024-01-15T17:59:58;1.47;118.99
7942;HTU21D;4016;50.758;7.150;2024-01-15T18:04:58;1.27;118.99
7942;HTU21D;4016;50.758;7.150;2024-01-15T18:09:58;1.37;118.99
7942;HTU21D;4016;50.758;7.150;2024-01-15T18:14:59;1.19;118.99
7942;HTU21D;4016;50.758;7.150;2024-01-15T18:20:03;1.22;118.99
7942;HTU21D;4016;50.758;7.150;2024-01-15T18:25:04;1.29;118.99
7942;HTU21D;4016;50.758;7.150;2024-01-15T18:30:04;1.29;118.99
7942;HTU21D;4016;50.758;7.150;2024-01-15T18:35:05;1.25;118.99
7942;HTU21D;4016;50.758;7.150;2024-01-15T18:40:06;1.39;118.99
7942;HTU21D;4016;50.758;7.150;2024-01-15T18:45:07;1.21;118.99
7942;HTU21D;4016;50.758;7.150;2024-01-15T18:50:08;1.28;118.99
7942;HTU21D;4016;50.758;7.150;2024-01-15T18:55:08;1.25;118.99
7942;HTU21D;4016;50.758;7.150;2024-01-15T19:00:13;1.48;118.99
7942;HTU21D;4016;50.758;7.150;2024-01-15T19:05:14;1.37;118.99
7942;HTU21D;4016;50.758;7.150;2024-01-15T19:10:14;1.33;118.99
7942;HTU21D;4016;50.758;7.150;2024-01-15T19:15:15;1.36;118.99
7942;HTU21D;4016;50.758;7.150;2024-01-15T19:20:15;1.28;118.99
7942;HTU21D;4016;50.758;7.150;2024-01-15T19:25:16;1.40;118.99
7942;HTU21D;4016;50.758;7.150;2024-01-15T19:30:16;1.34;118.99
7942;HTU21D;4016;50.758;7.150;2024-01-15T19:35:16;1.38;118.99
7942;HTU21D;4016;50.758;7.150;2024-01-15T19:40:17;1.29;118.99
7942;HTU21D;4016;50.758;7.150;2024-01-15T19:45:17;1.29;118.99
7942;HTU21D;4016;50.758;7.150;2024-01-15T19:50:17;1.27;118.99
7942;HTU21D;4016;50.758;7.150;2024-01-15T19:55:18;1.16;118.99
7942;HTU21D;4016;50.758;7.150;2024-01-15T20:00:18;1.19;118.99
7942;HTU21D;4016;50.758;7.150;2024-01-15T20:05:19;1.16;118.99
7942;HTU21D;4016;50.758;7.150;2024-01-15T20:10:19;1.08;118.99
7942;HTU21D;4016;50.758;7.150;2024-01-15T20:15:20;1.07;118.99
7942;HTU21D;4016;50.758;7.150;2024-01-15T20:20:20;1.22;118.99
7942;HTU21D;4016;50.758;7.150;2024-01-15T20:25:20;1.10;118.99
7942;HTU21D;4016;50.758;7.150;2024-01-15T20:30:21;1.10;118.99
7942;HTU21D;4016;50.758;7.150;2024-01-15T20:35:21;1.23;118.99
7942;HTU21D;4016;50.758;7.150;2024-01-15T20:40:22;1.13;118.99
7942;HTU21D;4016;50.758;7.150;2024-01-15T20:45:22;1.36;118.99
7942;HTU21D;4016;50.758;7.150;2024-01-15T20:50:23;1.28;118.99
7942;HTU21D;4016;50.758;7.150;2024-01-15T20:55:23;1.10;118.99
7942;HTU21D;4016;50.758;7.150;2024-01-15T21:00:24;1.23;118.99
7942;HTU21D;4016;50.758;7.150;2024-01-15T21:05:24;1.23;118.99
7942;HTU21D;4016;50.758;7.150;2024-01-15T21:10:24;1.31;118.99
7942;HTU21D;4016;50.758;7.150;2024-01-15T21:15:25;1.24;118.99
7942;HTU21D;4016;50.758;7.150;2024-01-15T21:20:26;1.26;118.99
7942;HTU21D;4016;50.758;7.150;2024-01-15T21:25:26;1.21;118.99
7942;HTU21D;4016;50.758;7.150;2024-01-15T21:30:27;1.32;118.99
7942;HTU21D;4016;50.758;7.150;2024-01-15T21:35:27;1.34;118.99
7942;HTU21D;4016;50.758;7.150;2024-01-15T21:40:28;1.18;118.99
7942;HTU21D;4016;50.758;7.150;2024-01-15T21:45:28;1.20;118.99
7942;HTU21D;4016;50.758;7.150;2024-01-15T21:50:29;1.23;118.99
7942;HTU21D;4016;50.758;7.150;2024-01-15T21:55:29;1.33;118.99
7942;HTU21D;4016;50.758;7.150;2024-01-15T22:00:29;1.23;118.99
7942;HTU21D;4016;50.758;7.150;2024-01-15T22:05:30;1.35;118.99
7942;HTU21D;4016;50.758;7.150;2024-01-15T22:10:30;1.22;118.99
7942;HTU21D;4016;50.758;7.150;2024-01-15T22:15:30;1.31;118.99
7942;HTU21D;4016;50.758;7.150;2024-01-15T22:20:31;1.31;118.99
7942;HTU21D;4016;50.758;7.150;2024-01-15T22:25:31;1.27;118.99
7942;HTU21D;4016;50.758;7.150;2024-01-15T22:30:34;1.34;118.99
7942;HTU21D;4016;50.758;7.150;2024-01-15T22:35:35;1.43;118.99
7942;HTU21D;4016;50.758;7.150;2024-01-15T22:40:35;1.37;118.99
7942;HTU21D;4016;50.758;7.150;2024-01-15T22:45:35;1.35;118.99
7942;HTU21D;4016;50.758;7.150;2024-01-15T22:50:36;1.53;118.99
7942;HTU21D;4016;50.758;7.150;2024-01-15T22:55:37;1.61;118.99
7942;HTU21D;4016;50.758;7.150;2024-01-15T23:00:37;1.62;118.99
7942;HTU21D;4016;50.758;7.150;2024-01-15T23:05:37;1.62;118.99
7942;HTU21D;4016;50.758;7.150;2024-01-15T23:10:39;1.57;118.99
7942;HTU21D;4016;50.758;7.150;2024-01-15T23:15:39;1.51;118.99
7942;HTU21D;4016;50.758;7.150;2024-01-15T23:20:39;1.49;118.99
7942;HTU21D;4016;50.758;7.150;2024-01-15T23:25:40;1.57;118.99
7942;HTU21D;4016;50.758;7.150;2024-01-15T23:30:40;1.61;118.99
7942;HTU21D;4016;50.758;7.150;2024-01-15T23:35:40;1.50;118.99
7942;HTU21D;4016;50.758;7.150;2024-01-15T23:40:40;1.66;118.99
7942;HTU21D;4016;50.758;7.150;2024-01-15T23:45:41;1.68;118.99
7942;HTU21D;4016;50.758;7.150;2024-01-15T23:50:41;1.39;118.99
7942;HTU21D;4016;50.758;7.150;2024-01-15T23:55:42;1.49;118.99
